Time;durP1;ratioP1;P1;durP2;ratioP2;P2;SDS_P1;SDS_P2;PMS_P1;PMS_P2;Temp;Humidity;BMP_temperature;BMP_pressure;BME280_temperature;BME280_humidity;BME280_pressure;Samples;Min_cycle;Max_cycle;Signal;HPM_P1;HPM_P2
2021/03/06 00:00:17;;;;;;;14.27;6.63;;;1.00;78.70;;;;;;5085564;28;20035;-74
2021/03/06 00:02:43;;;;;;;14.77;7.67;;;1.10;78.80;;;;;;5062477;28;20064;-77
2021/03/06 00:05:10;;;;;;;13.07;6.43;;;1.00;78.80;;;;;;5071185;28;20063;-73
2021/03/06 00:07:36;;;;;;;13.17;7.73;;;1.10;80.00;;;;;;5052357;28;20036;-73
2021/03/06 00:10:04;;;;;;;10.50;6.60;;;1.20;80.60;;;;;;5069979;28;20056;-73
2021/03/06 00:12:30;;;;;;;7.77;5.20;;;1.30;80.70;;;;;;5070157;28;20127;-74
2021/03/06 00:14:56;;;;;;;10.37;5.87;;;1.20;78.90;;;;;;5077554;28;20104;-74
2021/03/06 00:17:21;;;;;;;11.80;5.83;;;1.00;78.10;;;;;;5069831;28;20063;-75
2021/03/06 00:19:47;;;;;;;9.53;5.13;;;0.80;77.90;;;;;;5052833;28;20033;-76
2021/03/06 00:22:13;;;;;;;9.53;5.90;;;0.80;79.50;;;;;;5078639;28;20048;-75
2021/03/06 00:24:38;;;;;;;8.83;5.73;;;0.80;79.50;;;;;;5079770;28;20044;-74
2021/03/06 00:27:04;;;;;;;10.07;6.40;;;0.90;80.10;;;;;;5088418;28;20066;-74
2021/03/06 00:29:30;;;;;;;11.80;6.00;;;1.00;80.30;;;;;;5077127;28;20479;-74
2021/03/06 00:31:55;;;;;;;10.20;5.37;;;1.00;80.20;;;;;;5058309;28;20423;-74
2021/03/06 00:34:21;;;;;;;8.40;4.63;;;1.10;80.40;;;;;;5070479;28;20036;-73
2021/03/06 00:36:47;;;;;;;10.10;5.20;;;0.90;79.00;;;;;;5083938;28;20122;-75
2021/03/06 00:39:13;;;;;;;15.47;5.60;;;0.80;79.60;;;;;;5090394;28;20088;-74
2021/03/06 00:41:38;;;;;;;10.77;5.17;;;0.90;80.20;;;;;;5067348;28;20017;-75
2021/03/06 00:44:04;;;;;;;11.63;5.97;;;0.70;79.40;;;;;;5057005;28;20485;-75
2021/03/06 00:46:30;;;;;;;13.37;6.27;;;0.60;79.40;;;;;;5052281;28;20052;-75
2021/03/06 00:48:56;;;;;;;9.77;5.33;;;0.70;80.70;;;;;;5068294;28;20158;-74
2021/03/06 00:51:22;;;;;;;10.63;5.23;;;0.90;81.60;;;;;;5071772;28;20369;-74
2021/03/06 00:53:48;;;;;;;11.27;5.53;;;0.90;80.90;;;;;;5077103;28;20039;-76
2021/03/06 00:56:14;;;;;;;11.97;5.53;;;0.90;80.50;;;;;;5081402;28;20029;-75
2021/03/06 00:58:39;;;;;;;13.50;5.80;;;0.90;80.50;;;;;;5073595;28;20114;-75
2021/03/06 01:01:06;;;;;;;9.97;5.60;;;0.90;81.80;;;;;;5088904;28;20054;-73
2021/03/06 01:03:32;;;;;;;13.27;5.13;;;1.10;82.30;;;;;;5070636;28;20036;-74
2021/03/06 01:05:58;;;;;;;8.93;4.90;;;1.20;82.00;;;;;;5052481;28;20093;-74
2021/03/06 01:08:24;;;;;;;7.97;4.50;;;1.30;82.00;;;;;;5087289;28;20028;-75
2021/03/06 01:10:50;;;;;;;8.80;5.30;;;1.30;81.00;;;;;;5078411;28;20040;-77
2021/03/06 01:13:16;;;;;;;9.70;5.50;;;1.10;80.10;;;;;;5070202;28;20032;-74
2021/03/06 01:15:41;;;;;;;7.87;4.73;;;0.90;80.10;;;;;;5052890;28;20396;-73
2021/03/06 01:18:07;;;;;;;8.60;4.93;;;1.00;81.50;;;;;;5079417;28;20028;-74
2021/03/06 01:20:34;;;;;;;9.07;5.03;;;1.00;82.00;;;;;;5073465;28;20044;-74
2021/03/06 01:23:00;;;;;;;8.83;4.90;;;1.10;82.60;;;;;;5073367;28;20024;-75
2021/03/06 01:25:26;;;;;;;9.33;5.20;;;1.20;82.00;;;;;;5089734;28;20036;-75
2021/03/06 01:27:52;;;;;;;12.50;5.67;;;1.20;82.30;;;;;;5072101;28;20032;-76
2021/03/06 01:30:19;;;;;;;8.90;4.90;;;1.20;81.90;;;;;;5096378;28;20088;-74
2021/03/06 01:32:45;;;;;;;13.60;4.60;;;1.20;82.10;;;;;;5077670;28;20035;-75
2021/03/06 01:35:12;;;;;;;7.87;4.80;;;1.30;82.30;;;;;;5088247;28;20028;-74
2021/03/06 01:37:39;;;;;;;8.50;4.80;;;1.20;81.50;;;;;;5088945;28;20383;-73
2021/03/06 01:40:14;;;;;;;10.70;5.37;;;1.10;82.10;;;;;;5088974;28;20035;-74
2021/03/06 01:42:40;;;;;;;8.87;4.77;;;1.00;82.20;;;;;;5090464;28;20476;-73
2021/03/06 01:45:07;;;;;;;13.50;5.00;;;1.10;83.20;;;;;;5082316;28;20064;-74
2021/03/06 01:47:33;;;;;;;9.10;4.53;;;1.10;83.60;;;;;;5074755;28;20047;-74
2021/03/06 01:49:59;;;;;;;9.67;4.63;;;1.20;83.90;;;;;;5071760;28;20173;-75
2021/03/06 01:52:25;;;;;;;10.33;4.90;;;1.20;82.70;;;;;;5072172;28;20112;-74
2021/03/06 01:54:53;;;;;;;11.63;4.50;;;1.00;81.70;;;;;;5070821;28;20043;-74
2021/03/06 01:57:19;;;;;;;25.67;4.50;;;0.90;81.40;;;;;;5083369;28;20028;-74
2021/03/06 01:59:45;;;;;;;8.17;4.73;;;0.90;82.10;;;;;;5058283;28;20032;-74
2021/03/06 02:02:12;;;;;;;10.83;4.87;;;0.90;83.10;;;;;;5082323;28;20035;-75
2021/03/06 02:04:38;;;;;;;13.10;5.20;;;1.10;83.90;;;;;;5086481;28;20042;-74
2021/03/06 02:07:04;;;;;;;8.93;4.90;;;1.10;83.90;;;;;;5086826;28;20458;-74
2021/03/06 02:09:30;;;;;;;8.83;5.43;;;1.20;83.90;;;;;;5073043;28;20020;-74
2021/03/06 02:12:09;;;;;;;8.23;5.33;;;1.20;82.70;;;;;;5071112;28;20028;-76
2021/03/06 02:15:00;;;;;;;7.80;4.63;;;0.90;81.60;;;;;;5072992;28;20032;-75
2021/03/06 02:17:39;;;;;;;10.07;5.40;;;0.90;81.90;;;;;;5072846;28;20472;-74
2021/03/06 02:20:34;;;;;;;8.73;5.63;;;0.80;81.70;;;;;;5071584;28;20027;-76
2021/03/06 02:23:25;;;;;;;13.93;6.13;;;0.80;82.70;;;;;;5070951;28;20021;-75
2021/03/06 02:26:24;;;;;;;7.87;4.83;;;0.80;81.90;;;;;;5086534;28;20115;-75
2021/03/06 02:29:14;;;;;;;10.70;5.50;;;0.50;80.80;;;;;;5083694;28;20040;-75
2021/03/06 02:31:42;;;;;;;8.70;5.20;;;0.40;81.40;;;;;;5087445;28;20032;-73
2021/03/06 02:34:15;;;;;;;10.40;5.07;;;0.40;81.70;;;;;;5070751;28;20044;-74
2021/03/06 02:36:47;;;;;;;9.80;5.17;;;0.40;82.40;;;;;;5071388;28;20043;-73
2021/03/06 02:39:16;;;;;;;8.10;5.23;;;0.40;81.90;;;;;;5072432;28;20047;-73
2021/03/06 02:41:43;;;;;;;7.53;5.03;;;0.40;82.50;;;;;;5077318;28;20038;-73
2021/03/06 02:44:12;;;;;;;16.03;5.40;;;0.60;83.20;;;;;;5070663;28;20440;-73
2021/03/06 02:46:38;;;;;;;8.27;5.37;;;0.60;83.00;;;;;;5089994;28;20047;-73
2021/03/06 02:49:04;;;;;;;8.80;5.70;;;0.60;82.10;;;;;;5074213;28;20438;-74
2021/03/06 02:51:42;;;;;;;10.37;5.83;;;0.40;81.80;;;;;;5092316;28;20032;-74
2021/03/06 02:54:10;;;;;;;9.60;5.23;;;0.30;81.90;;;;;;5091774;28;20484;-74
2021/03/06 02:56:37;;;;;;;9.90;5.33;;;0.40;83.50;;;;;;5086935;28;20031;-74
2021/03/06 02:59:11;;;;;;;12.37;5.50;;;0.40;83.00;;;;;;5073437;28;20483;-75
2021/03/06 03:02:10;;;;;;;10.10;5.50;;;0.40;82.60;;;;;;5072939;28;20108;-73
2021/03/06 03:05:07;;;;;;;6.07;4.93;;;0.40;83.20;;;;;;5071492;28;20040;-74
2021/03/06 03:07:49;;;;;;;8.47;5.23;;;0.50;84.40;;;;;;5074976;28;20036;-73
2021/03/06 03:10:17;;;;;;;8.17;4.57;;;0.70;85.00;;;;;;5070352;28;20032;-74
2021/03/06 03:13:11;;;;;;;8.47;4.97;;;0.80;84.10;;;;;;5088116;28;20028;-73
2021/03/06 03:15:44;;;;;;;11.00;5.67;;;0.60;83.20;;;;;;5047623;28;20201;-73
2021/03/06 03:18:18;;;;;;;13.90;5.43;;;0.60;83.80;;;;;;5075245;28;20037;-73
2021/03/06 03:20:53;;;;;;;8.40;5.43;;;0.50;83.00;;;;;;5090850;28;20479;-74
2021/03/06 03:23:24;;;;;;;11.43;5.70;;;0.20;82.30;;;;;;5074698;28;20080;-74
2021/03/06 03:25:51;;;;;;;10.30;5.53;;;0.10;82.70;;;;;;5073193;28;20039;-74
2021/03/06 03:28:17;;;;;;;10.53;5.47;;;0.20;83.60;;;;;;5077018;28;20024;-73
2021/03/06 03:30:43;;;;;;;9.43;5.53;;;0.20;83.80;;;;;;5092083;28;20403;-73
2021/03/06 03:33:12;;;;;;;8.93;5.50;;;0.20;84.50;;;;;;5087083;28;20028;-73
2021/03/06 03:35:40;;;;;;;8.07;5.07;;;0.20;83.60;;;;;;5107175;28;20031;-74
2021/03/06 03:38:06;;;;;;;8.07;5.60;;;0.10;83.30;;;;;;5070858;28;20032;-76
2021/03/06 03:40:33;;;;;;;8.53;5.93;;;0.20;83.90;;;;;;5070843;28;20056;-73
2021/03/06 03:43:00;;;;;;;11.03;5.67;;;0.20;83.90;;;;;;5055637;28;20476;-73
2021/03/06 03:45:27;;;;;;;8.87;5.30;;;0.10;83.30;;;;;;5087573;28;20298;-74
2021/03/06 03:47:53;;;;;;;11.43;5.57;;;0.10;84.20;;;;;;5080655;28;20033;-74
2021/03/06 03:50:19;;;;;;;11.80;5.77;;;0.30;85.00;;;;;;5071969;28;20036;-74
2021/03/06 03:52:47;;;;;;;11.10;5.97;;;0.40;84.70;;;;;;5057947;28;20024;-73
2021/03/06 03:55:14;;;;;;;9.20;5.60;;;0.30;84.40;;;;;;5083517;28;20052;-74
2021/03/06 03:57:42;;;;;;;9.27;5.77;;;0.40;84.60;;;;;;5072561;28;20033;-74
2021/03/06 04:00:11;;;;;;;10.87;5.73;;;0.50;85.10;;;;;;5085248;28;20037;-74
2021/03/06 04:02:37;;;;;;;8.57;5.50;;;0.60;85.50;;;;;;5080927;28;20479;-75
2021/03/06 04:05:07;;;;;;;8.40;5.43;;;0.70;85.60;;;;;;5086544;28;20033;-73
2021/03/06 04:07:44;;;;;;;12.53;5.83;;;0.70;85.50;;;;;;5081735;28;20063;-73
2021/03/06 04:10:13;;;;;;;7.30;5.00;;;0.80;85.60;;;;;;5086545;28;20032;-73
2021/03/06 04:12:40;;;;;;;8.10;4.77;;;0.70;85.00;;;;;;5089821;28;20028;-73
2021/03/06 04:15:07;;;;;;;6.47;4.87;;;0.70;85.30;;;;;;5089076;28;20070;-75
2021/03/06 04:17:33;;;;;;;8.43;5.67;;;0.80;84.90;;;;;;5069406;28;20028;-73
2021/03/06 04:19:59;;;;;;;11.07;5.63;;;0.60;83.70;;;;;;5082510;28;20024;-73
2021/03/06 04:22:25;;;;;;;10.97;5.90;;;0.40;83.60;;;;;;5108183;28;20622;-73
2021/03/06 04:24:50;;;;;;;14.20;6.27;;;0.10;82.90;;;;;;5073562;28;20057;-73
2021/03/06 04:27:16;;;;;;;13.17;5.87;;;-0.10;82.70;;;;;;5078434;28;20040;-74
2021/03/06 04:29:42;;;;;;;12.83;6.80;;;-0.30;82.90;;;;;;5058064;28;20507;-73
2021/03/06 04:32:07;;;;;;;11.00;6.43;;;-0.40;83.70;;;;;;5061899;28;20032;-76
2021/03/06 04:34:33;;;;;;;10.97;6.03;;;-0.30;84.70;;;;;;5073687;28;20479;-73
2021/03/06 04:36:59;;;;;;;9.93;6.20;;;-0.40;84.40;;;;;;5091080;28;20020;-73
2021/03/06 04:39:24;;;;;;;8.87;6.60;;;-0.50;84.10;;;;;;5068663;28;20029;-73
2021/03/06 04:41:50;;;;;;;10.40;6.13;;;-0.60;84.00;;;;;;5055575;28;20127;-73
2021/03/06 04:44:16;;;;;;;12.97;6.50;;;-0.60;84.20;;;;;;5097864;28;20035;-74
2021/03/06 04:46:42;;;;;;;9.43;6.10;;;-0.60;84.20;;;;;;5065149;28;20052;-74
2021/03/06 04:49:07;;;;;;;11.73;6.43;;;-0.70;84.00;;;;;;5066461;28;20048;-74
2021/03/06 04:51:33;;;;;;;9.40;6.97;;;-0.70;84.30;;;;;;5070493;28;20032;-74
2021/03/06 04:53:58;;;;;;;13.10;7.17;;;-0.60;84.70;;;;;;5091652;28;20364;-75
2021/03/06 04:56:24;;;;;;;12.30;6.50;;;-0.50;85.90;;;;;;5106540;28;20043;-73
2021/03/06 04:58:51;;;;;;;12.10;6.87;;;-0.50;85.70;;;;;;5071584;28;20028;-73
2021/03/06 05:01:17;;;;;;;11.67;7.20;;;-0.50;85.30;;;;;;5052780;28;20274;-73
2021/03/06 05:03:43;;;;;;;10.27;6.83;;;-0.50;86.00;;;;;;5074749;28;20773;-74
2021/03/06 05:06:10;;;;;;;10.60;7.37;;;-0.40;87.00;;;;;;5071927;28;20377;-76
2021/03/06 05:08:35;;;;;;;11.27;6.60;;;-0.20;87.60;;;;;;5079488;28;20033;-74
2021/03/06 05:11:01;;;;;;;9.17;6.13;;;-0.20;86.90;;;;;;5070420;28;20271;-74
2021/03/06 05:13:27;;;;;;;9.10;6.77;;;-0.10;86.50;;;;;;5068823;28;20040;-74
2021/03/06 05:15:52;;;;;;;11.47;6.93;;;0.00;86.70;;;;;;5055935;28;20089;-74
2021/03/06 05:18:18;;;;;;;9.43;6.40;;;0.10;86.80;;;;;;5074128;28;20415;-74
2021/03/06 05:20:44;;;;;;;12.83;7.00;;;0.10;86.60;;;;;;5092234;28;20035;-74
2021/03/06 05:23:09;;;;;;;12.87;7.20;;;0.10;86.10;;;;;;5056452;28;20486;-73
2021/03/06 05:25:35;;;;;;;10.47;6.70;;;0.10;86.10;;;;;;5072969;28;20404;-73
2021/03/06 05:28:00;;;;;;;13.50;6.77;;;0.10;86.80;;;;;;5082872;28;20024;-73
2021/03/06 05:30:26;;;;;;;9.23;6.53;;;0.20;87.60;;;;;;5093151;28;20123;-73
2021/03/06 05:32:52;;;;;;;11.43;6.23;;;0.20;87.70;;;;;;5093214;28;20059;-73
2021/03/06 05:35:18;;;;;;;9.63;5.80;;;0.20;86.80;;;;;;5093228;28;20059;-73
2021/03/06 05:37:43;;;;;;;11.47;6.23;;;0.20;86.30;;;;;;5075874;28;20055;-73
2021/03/06 05:40:09;;;;;;;13.97;6.27;;;0.30;86.80;;;;;;5088116;28;20032;-73
2021/03/06 05:42:36;;;;;;;11.30;6.37;;;0.40;87.30;;;;;;5091612;28;20483;-73
2021/03/06 05:45:09;;;;;;;9.63;6.47;;;0.40;86.20;;;;;;5084567;28;20510;-73
2021/03/06 05:47:35;;;;;;;;;;;0.30;85.70;;;;;;5090162;28;20087;-73
2021/03/06 05:50:03;;;;;;;11.57;6.00;;;0.20;85.80;;;;;;5092596;28;19908;-72
2021/03/06 05:52:31;;;;;;;12.60;6.63;;;0.10;86.30;;;;;;5072120;28;20039;-74
2021/03/06 05:54:57;;;;;;;11.37;6.03;;;0.10;86.10;;;;;;5081253;28;20024;-73
2021/03/06 05:57:23;;;;;;;11.13;6.83;;;-0.10;85.40;;;;;;5092498;28;20036;-73
2021/03/06 05:59:49;;;;;;;10.83;6.40;;;-0.10;86.60;;;;;;5092362;28;20544;-73
2021/03/06 06:02:18;;;;;;;8.43;6.23;;;0.10;87.30;;;;;;5085117;28;20388;-75
2021/03/06 06:04:46;;;;;;;8.20;6.30;;;0.20;87.50;;;;;;5074096;28;20383;-73
2021/03/06 06:07:17;;;;;;;9.63;6.43;;;0.30;87.10;;;;;;5072292;28;20032;-73
2021/03/06 06:09:46;;;;;;;11.23;6.23;;;0.30;86.50;;;;;;5084053;28;20035;-74
2021/03/06 06:12:12;;;;;;;9.40;6.13;;;0.10;86.00;;;;;;5089966;28;20782;-73
2021/03/06 06:14:40;;;;;;;14.10;6.67;;;0.10;86.50;;;;;;5086526;28;20031;-72
2021/03/06 06:17:10;;;;;;;10.67;7.10;;;0.00;86.70;;;;;;5093168;28;20123;-73
2021/03/06 06:19:37;;;;;;;10.13;6.27;;;-0.10;86.00;;;;;;5091549;28;20085;-73
2021/03/06 06:22:24;;;;;;;14.90;6.33;;;-0.10;86.20;;;;;;5075963;28;20032;-73
2021/03/06 06:24:51;;;;;;;10.87;6.47;;;0.00;86.50;;;;;;5076374;28;20103;-73
2021/03/06 06:27:31;;;;;;;9.83;6.93;;;0.10;87.30;;;;;;5084487;28;20050;-76
2021/03/06 06:30:00;;;;;;;12.33;6.80;;;0.40;88.20;;;;;;5076615;28;20407;-73
2021/03/06 06:32:28;;;;;;;14.13;7.00;;;0.80;87.80;;;;;;5071743;28;20051;-74
2021/03/06 06:35:02;;;;;;;8.93;6.07;;;1.30;86.00;;;;;;5069024;28;20036;-74
2021/03/06 06:37:29;;;;;;;9.63;5.50;;;2.00;84.50;;;;;;5086493;28;20089;-74
2021/03/06 06:39:56;;;;;;;8.43;5.57;;;2.60;82.70;;;;;;5091225;28;20039;-74
2021/03/06 06:42:31;;;;;;;8.33;4.80;;;3.30;80.10;;;;;;5090227;28;20085;-75
2021/03/06 06:44:57;;;;;;;7.60;5.17;;;3.80;77.50;;;;;;5066204;28;20028;-75
2021/03/06 06:47:23;;;;;;;10.17;5.43;;;4.30;75.50;;;;;;5072289;28;20051;-74
2021/03/06 06:49:53;;;;;;;8.43;5.13;;;4.50;71.30;;;;;;5076470;28;20106;-75
2021/03/06 06:52:21;;;;;;;11.13;5.27;;;4.60;70.80;;;;;;5090922;28;20111;-76
2021/03/06 06:54:58;;;;;;;7.83;5.43;;;5.00;70.40;;;;;;5092364;28;20081;-75
2021/03/06 06:57:25;;;;;;;8.83;5.77;;;5.40;68.50;;;;;;5090431;28;20081;-76
2021/03/06 06:59:53;;;;;;;12.33;5.40;;;5.70;66.40;;;;;;5075334;28;20035;-76
2021/03/06 07:02:19;;;;;;;16.43;5.93;;;5.80;64.90;;;;;;5086758;28;20036;-77
2021/03/06 07:04:50;;;;;;;11.23;6.07;;;5.70;64.20;;;;;;5059786;28;20036;-76
2021/03/06 07:07:17;;;;;;;10.43;5.70;;;5.60;64.10;;;;;;5082106;28;20024;-76
2021/03/06 07:09:57;;;;;;;13.53;5.97;;;5.50;64.30;;;;;;5087186;28;20076;-75
2021/03/06 07:12:24;;;;;;;10.17;5.70;;;5.40;64.80;;;;;;5082074;28;20794;-77
2021/03/06 07:14:50;;;;;;;10.67;6.00;;;5.30;64.90;;;;;;5073169;28;20086;-75
2021/03/06 07:17:16;;;;;;;10.77;5.70;;;5.30;64.50;;;;;;5078361;28;20050;-75
2021/03/06 07:19:43;;;;;;;8.60;6.30;;;5.30;64.70;;;;;;5090752;28;20020;-75
2021/03/06 07:22:09;;;;;;;12.67;6.50;;;5.30;64.20;;;;;;5090892;28;20025;-75
2021/03/06 07:24:35;;;;;;;7.40;6.00;;;5.40;64.40;;;;;;5092666;28;20031;-75
2021/03/06 07:27:01;;;;;;;10.57;7.00;;;5.30;64.20;;;;;;5085935;28;20024;-76
2021/03/06 07:29:29;;;;;;;10.43;7.13;;;5.40;64.90;;;;;;5070875;28;20149;-74
2021/03/06 07:31:56;;;;;;;11.60;6.90;;;5.60;65.10;;;;;;5070694;28;20025;-75
2021/03/06 07:34:28;;;;;;;11.07;7.20;;;6.00;63.20;;;;;;5074589;28;20119;-76
2021/03/06 07:37:05;;;;;;;13.80;7.43;;;6.00;62.80;;;;;;5072836;28;20059;-74
2021/03/06 07:39:38;;;;;;;13.70;7.90;;;6.20;63.00;;;;;;5071651;28;20048;-75
2021/03/06 07:42:08;;;;;;;;;;;6.60;61.70;;;;;;5084097;28;20036;-75
2021/03/06 07:44:36;;;;;;;12.07;7.90;;;6.80;60.90;;;;;;5090814;28;19911;-75
2021/03/06 07:47:02;;;;;;;10.47;6.90;;;7.00;60.50;;;;;;5089050;28;20036;-74
2021/03/06 07:49:32;;;;;;;14.13;7.50;;;7.20;59.80;;;;;;5082743;28;20028;-77
2021/03/06 07:52:00;;;;;;;11.63;6.80;;;7.40;59.20;;;;;;5084869;28;20025;-75
2021/03/06 07:54:27;;;;;;;15.70;8.53;;;7.70;58.60;;;;;;5089601;28;20024;-75
2021/03/06 07:56:53;;;;;;;12.57;8.17;;;8.00;58.20;;;;;;5090904;28;20100;-73
2021/03/06 07:59:51;;;;;;;16.53;8.20;;;8.60;57.10;;;;;;5068322;28;20047;-73
2021/03/06 08:02:30;;;;;;;12.73;7.70;;;9.20;55.40;;;;;;5082477;28;20066;-73
2021/03/06 08:04:55;;;;;;;11.37;7.90;;;9.50;54.00;;;;;;5061567;28;20987;-73
2021/03/06 08:07:44;;;;;;;15.33;9.90;;;9.60;52.60;;;;;;5086318;28;20099;-74
2021/03/06 08:10:11;;;;;;;17.73;10.83;;;9.70;53.90;;;;;;5076122;28;20028;-75
2021/03/06 08:12:37;;;;;;;13.10;8.87;;;9.80;53.20;;;;;;5082064;28;20020;-74
2021/03/06 08:15:27;;;;;;;19.47;13.50;;;9.80;51.90;;;;;;5092099;28;20138;-74
2021/03/06 08:17:53;;;;;;;15.63;9.23;;;10.10;53.20;;;;;;5083577;28;20036;-75
2021/03/06 08:20:30;;;;;;;13.80;9.27;;;9.90;50.70;;;;;;5079929;28;20031;-73
2021/03/06 08:23:20;;;;;;;19.43;11.13;;;10.00;51.60;;;;;;5076640;28;20028;-76
2021/03/06 08:26:08;;;;;;;19.67;12.80;;;10.20;52.00;;;;;;5083672;28;20084;-75
2021/03/06 08:28:35;;;;;;;25.00;15.97;;;10.40;52.20;;;;;;5065896;28;20040;-76
2021/03/06 08:31:38;;;;;;;38.87;25.63;;;10.90;52.30;;;;;;5036759;28;20499;-75
2021/03/06 08:34:26;;;;;;;25.73;15.17;;;11.60;53.50;;;;;;5080323;28;20543;-75
2021/03/06 08:37:16;;;;;;;19.50;11.27;;;12.30;48.40;;;;;;5087985;28;20094;-76
2021/03/06 08:39:43;;;;;;;15.50;8.03;;;12.10;46.70;;;;;;5081691;28;20032;-74
2021/03/06 08:42:12;;;;;;;12.80;7.60;;;11.80;47.10;;;;;;5070966;28;20131;-76
2021/03/06 08:44:38;;;;;;;17.97;7.77;;;11.80;47.60;;;;;;5074516;28;20472;-74
2021/03/06 08:47:05;;;;;;;30.63;11.37;;;11.80;46.30;;;;;;5090803;28;20492;-77
2021/03/06 08:49:32;;;;;;;25.70;8.93;;;11.80;47.10;;;;;;5084378;28;20028;-77
2021/03/06 08:51:58;;;;;;;18.15;8.48;;;12.20;46.50;;;;;;5072227;28;20020;-75
2021/03/06 08:54:25;;;;;;;18.80;7.60;;;12.60;46.40;;;;;;5056781;28;20476;-75
2021/03/06 08:56:51;;;;;;;20.10;9.10;;;12.50;44.90;;;;;;5075512;28;20106;-74
2021/03/06 08:59:18;;;;;;;21.67;9.65;;;12.20;45.80;;;;;;5088055;28;20043;-74
2021/03/06 09:01:48;;;;;;;14.73;8.10;;;12.20;46.00;;;;;;5088917;28;20062;-72
2021/03/06 09:04:14;;;;;;;13.93;6.65;;;12.60;46.40;;;;;;5088279;28;20046;-73
2021/03/06 09:06:42;;;;;;;12.13;7.10;;;12.60;45.70;;;;;;5049066;28;20028;-74
2021/03/06 09:09:09;;;;;;;15.80;6.75;;;12.60;44.60;;;;;;5067672;28;20101;-73
2021/03/06 09:11:54;;;;;;;14.93;6.85;;;12.40;44.90;;;;;;5099571;28;20059;-76
2021/03/06 09:14:20;;;;;;;15.18;6.95;;;12.70;43.80;;;;;;5084351;28;20029;-73
2021/03/06 09:16:49;;;;;;;16.05;6.60;;;13.10;42.90;;;;;;5086146;28;20051;-73
2021/03/06 09:19:27;;;;;;;15.40;7.13;;;13.50;41.30;;;;;;5072376;28;20025;-73
2021/03/06 09:22:02;;;;;;;13.82;6.65;;;13.20;41.40;;;;;;5069693;28;20585;-74
2021/03/06 09:24:48;;;;;;;12.60;7.25;;;13.20;41.40;;;;;;5055090;28;20051;-73
2021/03/06 09:27:15;;;;;;;15.75;8.85;;;12.80;42.20;;;;;;5088121;28;20089;-73
2021/03/06 09:29:42;;;;;;;12.77;7.60;;;13.10;43.00;;;;;;5089081;28;20514;-73
2021/03/06 09:32:09;;;;;;;13.50;7.28;;;13.60;43.70;;;;;;5067855;28;20047;-74
2021/03/06 09:34:35;;;;;;;13.38;7.07;;;14.20;42.30;;;;;;5069455;28;20438;-76
2021/03/06 09:37:15;;;;;;;9.70;7.20;;;14.60;41.60;;;;;;5075829;28;20392;-73
2021/03/06 09:39:41;;;;;;;13.55;6.57;;;14.90;41.00;;;;;;5087895;28;20142;-74
2021/03/06 09:42:07;;;;;;;14.95;7.18;;;14.90;38.50;;;;;;5072860;28;20115;-74
2021/03/06 09:44:33;;;;;;;13.95;6.38;;;14.60;39.50;;;;;;5086103;28;20499;-76
2021/03/06 09:47:00;;;;;;;13.30;5.57;;;14.20;40.00;;;;;;5056826;28;20079;-74
2021/03/06 09:49:34;;;;;;;16.33;8.98;;;14.30;38.90;;;;;;5071919;28;20031;-74
2021/03/06 09:52:01;;;;;;;12.57;6.38;;;13.70;39.60;;;;;;5085743;28;20024;-74
2021/03/06 09:54:34;;;;;;;12.88;7.03;;;13.20;40.70;;;;;;5084449;28;20021;-76
2021/03/06 09:57:01;;;;;;;;;;;13.00;42.20;;;;;;5068124;28;20354;-75
2021/03/06 09:59:28;;;;;;;13.52;5.70;;;13.50;40.70;;;;;;5069244;28;20007;-75
2021/03/06 10:01:54;;;;;;;15.88;6.10;;;13.10;40.00;;;;;;5052644;28;20162;-75
2021/03/06 10:04:22;;;;;;;10.65;5.80;;;12.60;41.60;;;;;;5062661;28;20123;-75
2021/03/06 10:06:50;;;;;;;13.73;7.00;;;12.80;42.20;;;;;;5071507;28;20054;-75
2021/03/06 10:09:17;;;;;;;16.75;6.85;;;13.00;42.40;;;;;;5073800;28;20123;-75
2021/03/06 10:11:45;;;;;;;13.85;6.35;;;12.90;42.20;;;;;;5072150;28;20051;-75
2021/03/06 10:14:12;;;;;;;15.77;7.70;;;12.70;41.90;;;;;;5077180;28;20484;-75
2021/03/06 10:16:49;;;;;;;13.02;6.53;;;12.70;42.90;;;;;;5085750;28;20081;-75
2021/03/06 10:19:16;;;;;;;13.98;6.20;;;13.30;44.10;;;;;;5075520;28;20037;-75
2021/03/06 10:21:41;;;;;;;7.78;4.95;;;14.10;42.30;;;;;;5074737;28;20028;-76
2021/03/06 10:24:11;;;;;;;9.85;3.88;;;14.40;41.20;;;;;;5093377;28;20024;-73
2021/03/06 10:26:37;;;;;;;6.07;3.13;;;14.10;40.90;;;;;;5084830;28;20025;-73
2021/03/06 10:29:21;;;;;;;14.43;4.88;;;14.40;40.70;;;;;;5087185;28;20813;-75
2021/03/06 10:32:02;;;;;;;5.30;2.33;;;14.60;40.20;;;;;;5089347;28;20119;-75
2021/03/06 10:34:32;;;;;;;8.00;2.40;;;14.00;38.30;;;;;;5092361;28;20024;-74
2021/03/06 10:37:11;;;;;;;8.35;3.22;;;13.50;41.70;;;;;;5089594;28;20023;-75
2021/03/06 10:39:57;;;;;;;4.68;1.88;;;13.80;42.00;;;;;;5093834;28;20031;-75
2021/03/06 10:42:44;;;;;;;8.63;2.28;;;13.70;39.50;;;;;;5084142;28;20044;-75
2021/03/06 10:45:24;;;;;;;8.30;2.83;;;12.90;40.30;;;;;;5077336;28;20032;-75
2021/03/06 10:47:53;;;;;;;6.78;1.95;;;12.20;41.00;;;;;;5088878;28;20036;-74
2021/03/06 10:50:25;;;;;;;8.40;2.70;;;11.40;42.50;;;;;;5106409;28;20035;-75
2021/03/06 10:52:53;;;;;;;3.67;1.58;;;11.50;45.50;;;;;;5087718;28;20119;-73
2021/03/06 10:55:34;;;;;;;5.37;1.70;;;11.80;42.90;;;;;;5089503;28;20123;-74
2021/03/06 10:57:59;;;;;;;5.70;2.20;;;11.40;41.50;;;;;;5071482;28;20494;-73
2021/03/06 11:00:25;;;;;;;6.50;3.63;;;11.20;44.50;;;;;;5066882;28;20039;-74
2021/03/06 11:02:59;;;;;;;10.23;5.03;;;11.20;43.00;;;;;;5073222;28;20028;-75
2021/03/06 11:05:27;;;;;;;6.87;2.13;;;11.20;43.20;;;;;;5091622;28;20042;-74
2021/03/06 11:07:54;;;;;;;13.07;5.13;;;10.70;44.10;;;;;;5090364;28;20020;-77
2021/03/06 11:10:21;;;;;;;11.73;5.80;;;10.60;45.80;;;;;;5077654;28;20051;-74
2021/03/06 11:12:52;;;;;;;10.97;4.70;;;10.90;45.50;;;;;;5055043;28;20029;-78
2021/03/06 11:15:20;;;;;;;14.43;5.80;;;11.30;44.20;;;;;;5088677;28;20028;-75
2021/03/06 11:17:48;;;;;;;6.50;3.10;;;12.20;44.20;;;;;;5075108;28;20111;-78
2021/03/06 11:20:15;;;;;;;7.63;3.67;;;12.80;42.30;;;;;;5068232;28;20036;-74
2021/03/06 11:22:42;;;;;;;7.50;4.33;;;13.00;42.40;;;;;;5072155;28;20024;-74
2021/03/06 11:25:10;;;;;;;4.80;1.30;;;13.00;42.10;;;;;;5054133;28;20084;-75
2021/03/06 11:27:52;;;;;;;7.67;4.10;;;12.80;39.20;;;;;;5085597;28;20020;-73
2021/03/06 11:30:25;;;;;;;5.97;1.20;;;12.60;42.80;;;;;;5091639;28;20020;-74
2021/03/06 11:32:51;;;;;;;4.13;1.27;;;12.90;39.00;;;;;;5089859;28;20027;-75
2021/03/06 11:35:18;;;;;;;6.83;3.20;;;12.80;41.00;;;;;;5083541;28;20532;-75
2021/03/06 11:37:45;;;;;;;4.30;1.30;;;12.80;41.90;;;;;;5071500;28;20036;-74
2021/03/06 11:40:13;;;;;;;7.75;3.72;;;13.40;39.70;;;;;;5070192;28;20477;-75
2021/03/06 11:42:39;;;;;;;5.78;1.88;;;13.40;40.10;;;;;;5065522;28;20024;-75
2021/03/06 11:45:07;;;;;;;6.00;3.35;;;13.10;39.00;;;;;;5075242;28;20047;-75
2021/03/06 11:47:32;;;;;;;4.13;1.45;;;13.10;40.70;;;;;;5083113;28;20482;-73
2021/03/06 11:49:58;;;;;;;5.17;1.83;;;12.70;39.70;;;;;;5063857;28;20035;-74
2021/03/06 11:52:25;;;;;;;9.53;2.57;;;12.20;41.10;;;;;;5088068;28;20376;-74
2021/03/06 11:54:51;;;;;;;13.90;6.63;;;11.60;41.40;;;;;;5086098;28;20078;-77
2021/03/06 11:57:16;;;;;;;11.40;6.50;;;12.00;45.10;;;;;;5070342;28;20472;-74
2021/03/06 11:59:42;;;;;;;10.53;4.50;;;12.30;43.30;;;;;;5072207;28;20142;-74
2021/03/06 12:02:08;;;;;;;13.00;6.33;;;12.10;42.00;;;;;;5065884;28;20188;-75
2021/03/06 12:04:34;;;;;;;6.37;3.17;;;12.50;44.10;;;;;;5080070;28;20111;-74
2021/03/06 12:06:59;;;;;;;10.70;4.53;;;12.30;41.30;;;;;;5067436;28;20397;-74
2021/03/06 12:09:25;;;;;;;12.33;3.90;;;11.90;42.70;;;;;;5084549;28;20036;-74
2021/03/06 12:11:51;;;;;;;10.33;4.43;;;12.00;43.70;;;;;;5073186;28;20024;-76
2021/03/06 12:14:16;;;;;;;16.60;10.07;;;11.80;42.70;;;;;;5053539;28;20052;-73
2021/03/06 12:16:42;;;;;;;16.93;9.43;;;12.20;44.40;;;;;;5070655;28;20302;-75
2021/03/06 12:19:08;;;;;;;6.27;3.63;;;12.70;43.90;;;;;;5054470;28;20054;-74
2021/03/06 12:21:34;;;;;;;11.53;5.77;;;13.20;42.10;;;;;;5071701;28;20034;-74
2021/03/06 12:24:00;;;;;;;4.90;1.43;;;13.10;41.40;;;;;;5073565;28;20495;-75
2021/03/06 12:26:25;;;;;;;9.97;3.87;;;12.40;40.30;;;;;;5084961;28;20020;-74
2021/03/06 12:28:51;;;;;;;12.10;3.60;;;11.30;42.80;;;;;;5072324;28;20028;-77
2021/03/06 12:31:17;;;;;;;7.53;2.17;;;11.60;44.20;;;;;;5070100;28;20078;-74
2021/03/06 12:33:43;;;;;;;6.23;1.20;;;11.40;43.80;;;;;;5071707;28;20020;-74
2021/03/06 12:36:09;;;;;;;6.73;2.10;;;10.60;43.20;;;;;;5069231;28;20439;-74
2021/03/06 12:38:34;;;;;;;13.43;6.43;;;10.50;45.20;;;;;;5071321;28;20092;-74
2021/03/06 12:41:01;;;;;;;10.37;5.60;;;10.70;47.50;;;;;;5082461;28;20032;-75
2021/03/06 12:43:29;;;;;;;18.63;9.80;;;10.60;46.20;;;;;;5090433;28;20032;-76
2021/03/06 12:45:54;;;;;;;17.67;8.70;;;10.40;46.20;;;;;;5067258;28;20484;-79
2021/03/06 12:48:21;;;;;;;18.83;10.43;;;10.50;45.30;;;;;;5052667;28;20052;-74
2021/03/06 12:50:46;;;;;;;10.17;4.40;;;10.60;48.00;;;;;;5071040;28;20039;-75
2021/03/06 12:53:12;;;;;;;14.80;7.33;;;10.80;45.60;;;;;;5052994;28;20028;-75
2021/03/06 12:55:38;;;;;;;3.90;2.17;;;10.80;45.20;;;;;;5077579;28;20036;-75
2021/03/06 12:58:03;;;;;;;7.67;2.33;;;10.40;44.20;;;;;;5069251;28;20063;-75